Time;durP1;ratioP1;P1;durP2;ratioP2;P2;SDS_P1;SDS_P2;PMS_P1;PMS_P2;Temp;Humidity;BMP_temperature;BMP_pressure;BME280_temperature;BME280_humidity;BME280_pressure;Samples;Min_cycle;Max_cycle;Signal;HPM_P1;HPM_P2
2024/02/05 00:01:48;;;;;;;8.30;2.40;;;;;;;6.54;78.30;99573.91;109014;1256;138416;-68
2024/02/05 00:04:15;;;;;;;8.50;2.60;;;;;;;6.54;78.42;99580.70;106800;1256;62062;-67
2024/02/05 00:06:42;;;;;;;8.20;2.20;;;;;;;6.52;78.33;99574.37;104896;1257;139195;-68
2024/02/05 00:09:09;;;;;;;8.20;2.30;;;;;;;6.50;78.49;99570.52;104960;1257;66994;-68
2024/02/05 00:11:36;;;;;;;8.70;1.90;;;;;;;6.50;78.57;99577.30;104889;1257;74002;-66
2024/02/05 00:14:03;;;;;;;7.60;2.10;;;;;;;6.48;78.56;99581.09;104768;1258;139762;-68
2024/02/05 00:16:30;;;;;;;6.90;2.10;;;;;;;6.46;78.65;99585.92;104976;1262;62156;-68
2024/02/05 00:18:56;;;;;;;9.90;2.00;;;;;;;6.46;78.73;99589.75;104873;1256;139177;-60
2024/02/05 00:21:23;;;;;;;7.40;2.00;;;;;;;6.42;78.75;99592.80;104872;1259;66445;-60
2024/02/05 00:23:50;;;;;;;10.90;2.10;;;;;;;6.38;78.96;99596.70;105008;1256;73110;-59
2024/02/05 00:26:17;;;;;;;6.30;1.70;;;;;;;6.34;79.08;99596.63;104803;1259;138672;-60
2024/02/05 00:28:43;;;;;;;7.30;1.90;;;;;;;6.31;79.19;99593.94;104953;1257;62064;-60
2024/02/05 00:31:10;;;;;;;6.70;1.80;;;;;;;6.28;79.29;99593.52;104852;1255;138439;-60
2024/02/05 00:33:37;;;;;;;9.20;2.00;;;;;;;6.26;79.46;99589.80;104869;1257;67617;-61
2024/02/05 00:36:05;;;;;;;7.30;2.10;;;;;;;6.20;79.45;99582.90;104971;1256;72891;-60
2024/02/05 00:38:32;;;;;;;6.90;1.90;;;;;;;6.16;79.59;99589.23;109014;1256;138700;-61
2024/02/05 00:40:58;;;;;;;5.00;2.00;;;;;;;6.14;79.64;99594.92;106454;1258;62021;-60
2024/02/05 00:43:26;;;;;;;7.00;1.90;;;;;;;6.12;79.80;99594.35;104736;1257;138542;-60
2024/02/05 00:45:52;;;;;;;4.20;1.70;;;;;;;6.13;79.84;99596.11;104960;1255;65589;-61
2024/02/05 00:48:19;;;;;;;5.90;1.70;;;;;;;6.11;79.81;99596.42;104862;1256;138489;-61
2024/02/05 00:50:46;;;;;;;7.10;1.70;;;;;;;6.09;79.85;99592.36;104992;1256;61970;-60
2024/02/05 00:53:12;;;;;;;4.30;1.30;;;;;;;6.10;80.08;99588.90;104979;1255;62016;-61
2024/02/05 00:55:42;;;;;;;5.20;1.60;;;;;;;6.10;80.08;99582.80;104841;1257;138538;-60
2024/02/05 00:58:09;;;;;;;7.90;2.10;;;;;;;6.10;80.15;99577.24;104911;1259;66261;-60
2024/02/05 01:00:35;;;;;;;8.00;2.20;;;;;;;6.10;80.15;99569.40;104847;1259;138712;-59
2024/02/05 01:03:03;;;;;;;6.90;1.90;;;;;;;6.09;80.07;99572.35;104887;1257;62178;-60
2024/02/05 01:05:30;;;;;;;6.30;1.90;;;;;;;6.05;80.20;99574.52;104935;1255;62083;-59
2024/02/05 01:07:57;;;;;;;9.60;2.00;;;;;;;6.00;80.09;99570.39;104880;1259;138351;-61
2024/02/05 01:10:23;;;;;;;6.00;2.00;;;;;;;5.98;80.17;99575.05;104968;1259;65402;-59
2024/02/05 01:12:50;;;;;;;11.10;2.50;;;;;;;5.98;80.30;99583.40;104907;1256;138911;-59
2024/02/05 01:15:17;;;;;;;12.70;2.80;;;;;;;5.97;80.18;99579.90;104956;1260;62165;-59
2024/02/05 01:17:43;;;;;;;8.90;2.00;;;;;;;5.96;80.26;99583.70;104948;1256;61980;-59
2024/02/05 01:20:10;;;;;;;4.60;1.60;;;;;;;5.95;80.20;99585.41;104830;1257;138608;-61
2024/02/05 01:22:38;;;;;;;5.40;1.60;;;;;;;5.93;80.28;99581.84;109071;1256;66818;-60
2024/02/05 01:25:05;;;;;;;7.80;1.30;;;;;;;5.89;80.21;99567.82;109045;1256;138448;-59
2024/02/05 01:27:31;;;;;;;6.40;1.70;;;;;;;5.85;80.35;99572.08;106848;1255;62090;-59
2024/02/05 01:29:58;;;;;;;5.50;1.70;;;;;;;5.84;80.38;99568.40;104990;1256;62079;-60
2024/02/05 01:32:25;;;;;;;5.50;1.70;;;;;;;5.81;80.36;99563.80;104872;1257;145648;-60
2024/02/05 01:34:51;;;;;;;7.90;1.80;;;;;;;5.81;80.30;99564.50;104983;1256;65273;-61
2024/02/05 01:37:18;;;;;;;4.60;1.30;;;;;;;5.79;80.37;99565.15;104875;1257;138879;-60
2024/02/05 01:39:45;;;;;;;4.60;1.00;;;;;;;5.78;80.33;99563.20;104854;1260;61991;-60
2024/02/05 01:42:12;;;;;;;4.20;1.20;;;;;;;5.77;80.33;99562.83;105044;1259;61942;-61
2024/02/05 01:44:39;;;;;;;4.20;1.40;;;;;;;5.75;80.28;99553.39;104810;1257;138631;-59
2024/02/05 01:47:05;;;;;;;2.80;1.00;;;;;;;5.74;80.29;99548.48;104987;1259;68104;-60
2024/02/05 01:49:32;;;;;;;4.40;1.10;;;;;;;5.74;80.34;99547.77;104827;1256;139007;-60
2024/02/05 01:51:59;;;;;;;4.10;1.20;;;;;;;5.75;80.37;99553.38;104996;1259;62673;-60
2024/02/05 01:54:25;;;;;;;4.80;1.10;;;;;;;5.75;80.43;99557.57;104918;1256;138734;-60
2024/02/05 01:56:53;;;;;;;5.20;1.30;;;;;;;5.75;80.43;99561.91;104843;1260;76469;-59
2024/02/05 01:59:20;;;;;;;5.50;1.00;;;;;;;5.74;80.42;99567.79;104802;1256;67389;-61
2024/02/05 02:01:46;;;;;;;4.80;1.60;;;;;;;5.75;80.55;99563.98;104816;1257;138513;-60
2024/02/05 02:04:13;;;;;;;4.70;1.20;;;;;;;5.74;80.54;99566.41;104955;1257;62180;-60
2024/02/05 02:06:40;;;;;;;2.50;0.90;;;;;;;5.71;80.68;99555.52;104818;1259;139624;-60
2024/02/05 02:09:10;;;;;;;3.00;1.00;;;;;;;5.68;80.90;99557.02;104963;1259;76036;-60
2024/02/05 02:11:43;;;;;;;2.10;0.90;;;;;;;5.66;80.89;99560.98;104954;1257;66647;-60
2024/02/05 02:14:10;;;;;;;1.80;0.60;;;;;;;5.63;80.93;99540.71;104886;1259;138508;-60
2024/02/05 02:16:36;;;;;;;1.70;0.90;;;;;;;5.61;80.99;99550.94;105037;1256;62140;-60
2024/02/05 02:19:08;;;;;;;1.80;1.00;;;;;;;5.59;81.03;99546.20;104987;1256;140637;-60
2024/02/05 02:21:34;;;;;;;2.90;0.90;;;;;;;5.61;81.15;99541.17;104827;1260;75795;-61
2024/02/05 02:24:01;;;;;;;3.10;0.90;;;;;;;5.61;81.17;99547.80;104860;1256;65316;-60
2024/02/05 02:26:28;;;;;;;2.10;1.00;;;;;;;5.60;81.31;99559.26;104827;1259;148810;-60
2024/02/05 02:28:55;;;;;;;3.90;1.10;;;;;;;5.62;81.44;99565.59;105015;1257;62153;-60
2024/02/05 02:31:22;;;;;;;4.20;1.30;;;;;;;5.64;81.44;99559.20;104849;1259;139298;-60
2024/02/05 02:34:01;;;;;;;5.40;1.60;;;;;;;5.67;81.43;99564.46;105227;1257;75217;-60
2024/02/05 02:36:30;;;;;;;5.50;1.50;;;;;;;5.68;81.56;99565.55;106629;1256;140667;-60
2024/02/05 02:39:00;;;;;;;2.80;1.40;;;;;;;5.68;81.49;99558.77;105672;1259;72952;-60
2024/02/05 02:41:29;;;;;;;3.90;1.80;;;;;;;5.68;81.58;99555.98;107145;1256;62164;-60
2024/02/05 02:44:00;;;;;;;4.20;1.40;;;;;;;5.70;81.51;99549.77;109027;1255;139637;-61
2024/02/05 02:46:31;;;;;;;2.80;1.00;;;;;;;5.71;81.58;99552.07;109005;1256;74072;-60
2024/02/05 02:48:57;;;;;;;4.60;1.30;;;;;;;5.71;81.43;99541.44;106824;1254;138688;-59
2024/02/05 02:51:25;;;;;;;3.70;1.00;;;;;;;5.72;81.49;99536.06;105140;1254;71986;-60
2024/02/05 02:53:52;;;;;;;3.90;0.90;;;;;;;5.76;81.56;99539.48;105060;1254;62179;-60
2024/02/05 02:56:18;;;;;;;3.50;1.20;;;;;;;5.78;81.42;99520.39;104849;1259;138571;-60
2024/02/05 02:58:45;;;;;;;3.80;1.10;;;;;;;5.77;81.26;99517.06;104965;1254;74725;-60
2024/02/05 03:01:12;;;;;;;9.70;2.40;;;;;;;5.77;81.18;99509.04;104973;1258;138830;-60
2024/02/05 03:03:39;;;;;;;6.00;1.60;;;;;;;5.75;81.16;99509.52;105087;1258;73375;-60
2024/02/05 03:06:06;;;;;;;5.00;1.40;;;;;;;5.74;80.95;99509.13;105150;1255;62162;-60
2024/02/05 03:08:33;;;;;;;7.10;2.00;;;;;;;5.73;80.90;99496.58;104864;1257;138226;-61
2024/02/05 03:11:00;;;;;;;4.70;1.30;;;;;;;5.70;80.72;99501.02;104981;1255;76031;-60
2024/02/05 03:13:26;;;;;;;8.60;1.40;;;;;;;5.63;80.52;99507.33;104688;1259;138814;-60
2024/02/05 03:15:53;;;;;;;4.50;1.70;;;;;;;5.58;80.24;99506.16;105094;1254;72955;-60
2024/02/05 03:18:20;;;;;;;5.40;1.60;;;;;;;5.51;79.90;99506.13;105050;1259;138573;-60
2024/02/05 03:20:46;;;;;;;4.80;1.30;;;;;;;5.45;79.82;99522.67;105095;1257;62048;-61
2024/02/05 03:23:14;;;;;;;5.30;1.60;;;;;;;5.42;79.79;99527.48;105035;1254;76158;-60
2024/02/05 03:25:41;;;;;;;5.60;1.40;;;;;;;5.39;79.72;99521.48;104867;1258;138498;-60
2024/02/05 03:28:07;;;;;;;5.10;1.20;;;;;;;5.37;79.65;99510.64;104874;1254;73137;-60
2024/02/05 03:30:34;;;;;;;4.60;1.70;;;;;;;5.35;79.55;99514.07;104741;1256;138896;-60
2024/02/05 03:33:02;;;;;;;5.80;1.70;;;;;;;5.31;79.47;99512.74;108559;1256;60143;-60
2024/02/05 03:35:29;;;;;;;4.60;1.20;;;;;;;5.28;79.40;99503.10;109130;1255;74177;-61
2024/02/05 03:37:56;;;;;;;4.30;1.10;;;;;;;5.26;79.22;99507.41;107199;1257;137546;-60
2024/02/05 03:40:23;;;;;;;4.50;1.10;;;;;;;5.23;79.15;99507.50;104997;1259;72397;-60
2024/02/05 03:42:53;;;;;;;5.40;1.50;;;;;;;5.19;79.15;99508.61;104774;1261;139416;-60
2024/02/05 03:45:20;;;;;;;4.20;1.20;;;;;;;5.16;79.12;99512.02;105144;1254;62075;-60
2024/02/05 03:47:47;;;;;;;4.10;1.50;;;;;;;5.13;79.13;99515.23;104828;1254;76082;-60
2024/02/05 03:50:13;;;;;;;7.40;1.30;;;;;;;5.11;79.02;99514.99;104792;1257;138945;-60
2024/02/05 03:52:45;;;;;;;6.30;1.60;;;;;;;5.08;79.02;99520.98;104991;1259;73901;-60
2024/02/05 03:55:12;;;;;;;5.10;1.60;;;;;;;5.04;79.01;99520.21;109100;1254;138197;-61
2024/02/05 03:57:40;;;;;;;5.70;1.20;;;;;;;5.01;79.02;99521.52;109213;1257;60073;-61
2024/02/05 04:00:09;;;;;;;3.30;1.20;;;;;;;5.00;78.98;99530.02;109123;1256;76221;-61
2024/02/05 04:02:35;;;;;;;5.70;1.40;;;;;;;4.99;79.02;99531.39;109136;1254;138268;-62
2024/02/05 04:05:03;;;;;;;3.60;1.20;;;;;;;4.99;79.00;99530.15;109189;1255;73789;-60
2024/02/05 04:07:29;;;;;;;5.00;1.30;;;;;;;4.99;78.94;99535.91;109084;1254;138341;-59
2024/02/05 04:09:56;;;;;;;3.40;1.00;;;;;;;5.00;78.88;99536.77;109201;1254;61328;-59
2024/02/05 04:12:22;;;;;;;5.80;1.60;;;;;;;5.00;78.91;99536.27;105852;1255;139166;-60
2024/02/05 04:14:50;;;;;;;7.10;1.50;;;;;;;5.01;78.76;99535.44;104847;1259;66676;-62
2024/02/05 04:17:16;;;;;;;6.40;1.40;;;;;;;5.02;78.76;99538.06;104975;1257;70616;-68
2024/02/05 04:19:43;;;;;;;3.30;1.10;;;;;;;5.04;78.72;99543.67;104932;1259;138063;-67
2024/02/05 04:22:11;;;;;;;7.10;1.50;;;;;;;5.04;78.59;99543.15;109137;1254;60011;-68
2024/02/05 04:24:38;;;;;;;5.30;1.60;;;;;;;5.04;78.50;99539.86;108870;1256;138090;-67
2024/02/05 04:27:06;;;;;;;3.30;1.30;;;;;;;5.03;78.46;99543.48;109120;1256;64543;-68
2024/02/05 04:29:36;;;;;;;6.30;1.80;;;;;;;5.01;78.32;99545.68;109061;1256;72376;-67
2024/02/05 04:32:02;;;;;;;6.80;1.60;;;;;;;5.01;78.27;99545.67;108795;1255;138794;-68
2024/02/05 04:34:29;;;;;;;5.00;1.50;;;;;;;5.00;78.12;99542.70;109117;1255;60239;-68
2024/02/05 04:36:56;;;;;;;4.10;1.30;;;;;;;5.00;78.16;99544.27;108964;1256;139519;-67
2024/02/05 04:39:23;;;;;;;10.00;1.80;;;;;;;5.01;78.12;99553.33;109040;1256;65998;-67
2024/02/05 04:41:50;;;;;;;7.40;1.70;;;;;;;5.02;78.11;99558.41;109078;1256;73866;-68
2024/02/05 04:44:16;;;;;;;5.90;1.60;;;;;;;5.04;77.87;99550.11;108867;1255;138525;-68
2024/02/05 04:46:43;;;;;;;5.30;1.40;;;;;;;5.05;77.75;99551.71;109077;1256;60886;-67
2024/02/05 04:49:10;;;;;;;5.60;1.40;;;;;;;5.06;77.87;99550.17;107167;1256;138168;-68
2024/02/05 04:51:37;;;;;;;6.00;1.80;;;;;;;5.06;77.77;99552.61;104826;1261;66049;-68
2024/02/05 04:54:05;;;;;;;4.50;1.60;;;;;;;5.06;77.69;99557.31;104911;1257;70771;-69
2024/02/05 04:56:32;;;;;;;5.50;1.20;;;;;;;5.06;77.64;99563.73;108854;1255;137752;-59
2024/02/05 04:58:58;;;;;;;6.80;1.90;;;;;;;5.05;77.58;99559.55;109025;1255;60169;-59
2024/02/05 05:01:25;;;;;;;7.40;1.40;;;;;;;5.04;77.45;99555.67;109004;1254;137601;-59
2024/02/05 05:03:52;;;;;;;4.60;1.80;;;;;;;5.01;77.39;99562.90;106282;1257;65208;-61
2024/02/05 05:06:18;;;;;;;3.90;1.40;;;;;;;4.98;77.42;99565.95;104943;1258;139220;-61
2024/02/05 05:08:45;;;;;;;6.90;1.80;;;;;;;4.96;77.39;99560.48;105044;1257;62167;-60
2024/02/05 05:11:20;;;;;;;8.70;2.00;;;;;;;4.95;77.28;99562.02;105161;1257;62160;-59
2024/02/05 05:13:48;;;;;;;7.40;1.40;;;;;;;4.92;77.27;99551.85;109121;1254;138631;-62
2024/02/05 05:16:16;;;;;;;6.00;1.40;;;;;;;4.90;77.25;99556.66;109149;1254;66259;-61
2024/02/05 05:18:43;;;;;;;5.20;1.60;;;;;;;4.88;77.12;99558.52;104930;1259;138691;-60
2024/02/05 05:21:10;;;;;;;4.60;1.40;;;;;;;4.86;77.04;99558.63;105000;1259;62187;-60
2024/02/05 05:23:37;;;;;;;3.60;1.60;;;;;;;4.85;76.87;99561.92;105141;1257;62137;-61
2024/02/05 05:26:05;;;;;;;5.00;1.20;;;;;;;4.84;76.82;99556.52;104910;1257;137607;-69
2024/02/05 05:28:32;;;;;;;4.70;1.30;;;;;;;4.81;76.80;99562.69;109156;1257;66997;-67
2024/02/05 05:30:59;;;;;;;5.90;1.40;;;;;;;4.78;76.53;99573.20;109082;1254;138710;-67
2024/02/05 05:33:26;;;;;;;6.00;1.70;;;;;;;4.75;76.50;99591.88;105766;1254;62157;-67
2024/02/05 05:35:53;;;;;;;8.50;1.60;;;;;;;4.74;76.36;99586.98;105188;1255;62049;-68
2024/02/05 05:38:19;;;;;;;6.30;1.30;;;;;;;4.72;76.27;99588.30;104986;1259;138505;-60
2024/02/05 05:40:46;;;;;;;5.00;1.40;;;;;;;4.69;76.10;99581.10;104910;1259;66796;-61
2024/02/05 05:43:13;;;;;;;4.80;1.80;;;;;;;4.66;76.26;99573.55;104897;1257;137884;-60
2024/02/05 05:45:39;;;;;;;4.50;1.40;;;;;;;4.61;75.97;99570.42;105019;1254;62056;-60
2024/02/05 05:48:07;;;;;;;6.40;1.90;;;;;;;4.56;75.93;99570.11;105043;1259;62045;-60
2024/02/05 05:50:34;;;;;;;7.40;1.80;;;;;;;4.52;76.03;99574.84;109076;1255;137532;-61
2024/02/05 05:53:01;;;;;;;4.60;1.40;;;;;;;4.48;75.94;99571.08;109236;1254;65996;-61
2024/02/05 05:55:28;;;;;;;6.90;1.70;;;;;;;4.44;75.95;99575.13;109140;1255;139269;-61
2024/02/05 05:57:54;;;;;;;5.70;1.70;;;;;;;4.40;75.82;99576.93;109239;1255;59971;-61
2024/02/05 06:00:22;;;;;;;8.80;2.00;;;;;;;4.36;75.76;99578.55;107976;1257;138527;-60
2024/02/05 06:02:48;;;;;;;9.10;1.50;;;;;;;4.34;75.68;99582.98;109192;1257;76062;-60
2024/02/05 06:05:15;;;;;;;6.50;1.70;;;;;;;4.31;75.70;99588.81;108039;1257;69152;-62
2024/02/05 06:07:44;;;;;;;7.20;1.90;;;;;;;4.28;75.48;99591.84;104915;1256;138454;-61
2024/02/05 06:10:11;;;;;;;7.80;2.00;;;;;;;4.25;75.22;99593.31;105094;1259;62078;-60
2024/02/05 06:12:40;;;;;;;7.30;1.90;;;;;;;4.23;75.27;99595.31;109104;1254;138945;-61
2024/02/05 06:15:09;;;;;;;6.90;1.60;;;;;;;4.17;75.28;99596.70;109205;1255;74447;-61
2024/02/05 06:17:36;;;;;;;7.60;1.70;;;;;;;4.13;75.22;99602.99;106331;1258;66451;-61
2024/02/05 06:20:05;;;;;;;6.20;1.70;;;;;;;4.12;75.36;99595.64;104890;1254;139095;-61
2024/02/05 06:22:35;;;;;;;6.90;1.80;;;;;;;4.08;75.37;99603.71;107548;1254;61968;-61
2024/02/05 06:25:02;;;;;;;10.90;1.50;;;;;;;4.05;75.35;99612.28;104866;1255;138819;-61
2024/02/05 06:27:30;;;;;;;6.90;1.60;;;;;;;4.03;75.55;99620.72;109238;1256;76241;-62
2024/02/05 06:29:57;;;;;;;7.90;1.70;;;;;;;4.04;75.46;99623.20;106446;1262;66407;-62
2024/02/05 06:32:23;;;;;;;6.90;1.80;;;;;;;4.08;75.55;99626.46;104746;1257;138507;-61
2024/02/05 06:34:50;;;;;;;7.50;1.80;;;;;;;4.10;75.51;99632.73;104873;1261;62167;-59
2024/02/05 06:37:17;;;;;;;6.40;1.70;;;;;;;4.10;75.54;99625.80;104588;1262;137774;-60
2024/02/05 06:39:44;;;;;;;7.90;2.00;;;;;;;4.11;75.53;99627.94;109206;1254;77165;-61
2024/02/05 06:42:11;;;;;;;9.80;2.20;;;;;;;4.12;75.52;99623.42;106941;1260;65281;-61
2024/02/05 06:44:38;;;;;;;10.00;2.10;;;;;;;4.14;75.44;99616.74;108845;1254;138341;-61
2024/02/05 06:47:05;;;;;;;9.90;2.10;;;;;;;4.16;75.47;99610.38;108890;1261;60149;-61
2024/02/05 06:49:31;;;;;;;8.50;2.10;;;;;;;4.19;75.43;99620.19;109116;1257;138227;-61
2024/02/05 06:51:58;;;;;;;8.40;2.10;;;;;;;4.22;75.49;99627.63;108852;1254;77052;-61
2024/02/05 06:54:25;;;;;;;17.30;3.20;;;;;;;4.28;75.37;99625.16;105013;1259;138742;-61
2024/02/05 06:56:52;;;;;;;7.00;1.80;;;;;;;4.33;75.37;99625.69;105086;1257;73203;-60
2024/02/05 06:59:19;;;;;;;12.50;2.60;;;;;;;4.39;75.32;99625.35;104752;1254;62114;-61
2024/02/05 07:01:46;;;;;;;7.30;2.00;;;;;;;4.43;75.24;99624.63;104997;1256;138074;-60
2024/02/05 07:04:12;;;;;;;7.40;2.00;;;;;;;4.49;75.31;99626.89;105060;1260;75304;-60
2024/02/05 07:06:39;;;;;;;6.50;2.20;;;;;;;4.52;75.22;99626.63;105043;1257;138718;-61
2024/02/05 07:09:06;;;;;;;7.40;2.40;;;;;;;4.55;75.09;99638.68;104872;1257;71988;-61
2024/02/05 07:11:33;;;;;;;11.60;2.80;;;;;;;4.57;75.13;99635.30;105010;1259;62051;-61
2024/02/05 07:14:00;;;;;;;8.40;2.50;;;;;;;4.59;75.15;99635.70;104738;1262;138847;-62
2024/02/05 07:16:26;;;;;;;7.70;2.30;;;;;;;4.61;75.08;99636.27;105124;1255;76428;-61
2024/02/05 07:18:53;;;;;;;8.80;2.70;;;;;;;4.63;75.17;99644.52;105016;1257;138531;-61
2024/02/05 07:21:20;;;;;;;9.50;2.40;;;;;;;4.65;75.15;99651.02;105143;1259;73083;-61
2024/02/05 07:23:46;;;;;;;10.30;2.80;;;;;;;4.73;75.31;99647.77;105095;1258;62219;-62
2024/02/05 07:26:13;;;;;;;17.30;7.80;;;;;;;4.85;75.36;99655.60;105029;1254;137680;-62
2024/02/05 07:28:41;;;;;;;15.50;5.50;;;;;;;4.97;75.24;99658.04;104974;1257;74627;-61
2024/02/05 07:31:09;;;;;;;15.80;3.70;;;;;;;5.08;75.12;99666.20;107025;1258;138132;-61
2024/02/05 07:33:36;;;;;;;12.30;3.10;;;;;;;5.16;74.79;99670.27;105037;1257;73551;-61
2024/02/05 07:36:03;;;;;;;9.60;3.50;;;;;;;5.23;74.72;99670.98;105041;1257;62182;-62
2024/02/05 07:38:30;;;;;;;13.30;2.90;;;;;;;5.26;74.52;99668.13;109096;1254;138551;-59
2024/02/05 07:40:58;;;;;;;9.40;2.30;;;;;;;5.26;74.20;99660.83;106711;1256;75585;-62
2024/02/05 07:43:25;;;;;;;8.70;2.20;;;;;;;5.31;74.25;99658.52;105761;1259;138666;-60
2024/02/05 07:45:52;;;;;;;9.70;2.40;;;;;;;5.43;74.36;99661.10;104998;1261;71107;-60
2024/02/05 07:48:19;;;;;;;12.60;2.70;;;;;;;5.55;74.14;99661.95;104817;1260;138080;-60
2024/02/05 07:50:46;;;;;;;8.60;2.40;;;;;;;5.62;73.84;99664.27;109203;1254;65385;-61
2024/02/05 07:53:13;;;;;;;9.00;2.40;;;;;;;5.71;73.60;99665.02;108230;1262;75366;-60
2024/02/05 07:55:40;;;;;;;13.10;2.70;;;;;;;5.74;73.45;99669.27;104792;1261;138949;-62
2024/02/05 07:58:08;;;;;;;8.10;2.60;;;;;;;5.77;73.42;99668.67;104899;1261;73297;-60
2024/02/05 08:00:35;;;;;;;10.10;2.60;;;;;;;5.81;73.16;99677.30;104877;1262;138700;-60
2024/02/05 08:03:02;;;;;;;7.30;2.20;;;;;;;5.87;73.21;99673.80;104918;1262;62055;-61
2024/02/05 08:05:29;;;;;;;9.70;2.60;;;;;;;5.96;73.15;99676.85;104804;1262;75810;-61
2024/02/05 08:07:56;;;;;;;9.50;2.60;;;;;;;6.06;73.24;99677.65;104944;1258;138050;-61
2024/02/05 08:10:25;;;;;;;10.10;2.60;;;;;;;6.14;73.03;99671.05;108859;1254;73260;-61
2024/02/05 08:12:52;;;;;;;11.70;2.60;;;;;;;6.19;72.50;99684.06;109071;1257;137910;-61
2024/02/05 08:15:19;;;;;;;16.40;2.60;;;;;;;6.23;72.28;99675.64;109002;1256;60455;-62
2024/02/05 08:17:46;;;;;;;8.90;2.60;;;;;;;6.30;72.54;99677.71;109029;1260;73404;-61
2024/02/05 08:20:13;;;;;;;12.80;3.10;;;;;;;6.37;72.48;99679.46;109056;1254;138275;-61
2024/02/05 08:22:40;;;;;;;9.40;2.90;;;;;;;6.43;72.21;99682.58;108994;1254;72587;-68
2024/02/05 08:25:07;;;;;;;9.50;2.00;;;;;;;6.49;72.02;99681.67;108884;1254;138250;-68
2024/02/05 08:27:34;;;;;;;6.80;2.10;;;;;;;6.53;71.21;99684.91;109230;1254;60410;-68
2024/02/05 08:30:01;;;;;;;11.00;2.50;;;;;;;6.52;71.17;99677.73;108885;1254;75611;-68
2024/02/05 08:32:29;;;;;;;14.40;2.60;;;;;;;6.48;70.90;99681.48;109071;1257;137781;-67
2024/02/05 08:34:56;;;;;;;8.50;2.20;;;;;;;6.45;70.71;99672.51;109014;1254;71231;-68
2024/02/05 08:37:22;;;;;;;11.30;2.60;;;;;;;6.44;70.92;99669.17;109079;1254;137532;-69
2024/02/05 08:39:49;;;;;;;9.40;2.20;;;;;;;6.47;70.82;99673.59;108921;1254;60236;-68
2024/02/05 08:42:18;;;;;;;13.80;2.70;;;;;;;6.48;70.31;99677.47;109105;1255;137951;-67
2024/02/05 08:44:45;;;;;;;13.40;2.80;;;;;;;6.48;70.23;99672.94;108956;1254;66736;-68
2024/02/05 08:47:13;;;;;;;10.50;2.30;;;;;;;6.52;70.54;99678.41;106680;1257;71108;-68
2024/02/05 08:49:41;;;;;;;10.10;2.60;;;;;;;6.59;70.76;99687.67;105040;1259;138067;-68
2024/02/05 08:52:08;;;;;;;9.00;2.20;;;;;;;6.66;70.47;99694.80;105045;1260;61981;-69
2024/02/05 08:54:35;;;;;;;7.60;2.50;;;;;;;6.68;70.01;99698.15;104979;1259;137793;-67
2024/02/05 08:57:05;;;;;;;8.30;2.20;;;;;;;6.63;69.62;99700.30;107482;1258;65645;-67
2024/02/05 08:59:34;;;;;;;8.40;2.30;;;;;;;6.62;69.64;99709.02;104942;1261;74385;-68
2024/02/05 09:02:01;;;;;;;9.90;2.60;;;;;;;6.65;69.44;99709.08;105029;1258;138033;-67
2024/02/05 09:04:28;;;;;;;7.40;2.60;;;;;;;6.64;69.28;99704.70;105136;1254;62168;-68
2024/02/05 09:06:55;;;;;;;9.80;2.80;;;;;;;6.62;69.23;99708.48;105036;1255;137744;-68
2024/02/05 09:09:21;;;;;;;13.50;2.60;;;;;;;6.66;68.93;99721.11;105099;1257;67320;-68
2024/02/05 09:11:48;;;;;;;11.20;2.50;;;;;;;6.72;69.11;99725.62;105119;1258;72795;-67
2024/02/05 09:14:15;;;;;;;10.20;2.50;;;;;;;6.78;69.11;99724.20;104987;1257;137842;-68
2024/02/05 09:16:42;;;;;;;10.60;2.50;;;;;;;6.79;68.97;99734.88;104990;1259;62137;-68
2024/02/05 09:19:08;;;;;;;8.10;2.70;;;;;;;6.78;68.52;99738.85;105065;1259;138228;-68
2024/02/05 09:21:35;;;;;;;10.20;2.40;;;;;;;6.78;68.52;99737.98;105119;1259;65420;-68
2024/02/05 09:24:02;;;;;;;7.00;2.10;;;;;;;6.83;68.58;99742.27;104883;1259;199378;-69
2024/02/05 09:26:29;;;;;;;11.70;2.50;;;;;;;6.84;68.07;99756.44;104971;1258;137739;-67
2024/02/05 09:28:56;;;;;;;9.60;2.50;;;;;;;6.79;67.83;99750.57;105101;1259;62687;-68
2024/02/05 09:31:23;;;;;;;8.20;2.10;;;;;;;6.75;67.67;99747.16;105013;1259;137593;-68
2024/02/05 09:33:50;;;;;;;9.10;2.60;;;;;;;6.72;67.62;99755.95;105066;1259;67255;-68
2024/02/05 09:36:17;;;;;;;10.90;2.80;;;;;;;6.74;67.90;99763.16;104921;1258;138247;-67
2024/02/05 09:38:43;;;;;;;17.20;2.50;;;;;;;6.77;67.88;99764.63;105068;1254;62077;-67
2024/02/05 09:41:11;;;;;;;11.50;2.80;;;;;;;6.76;67.79;99764.60;105054;1259;62037;-60
2024/02/05 09:43:38;;;;;;;13.20;3.00;;;;;;;6.73;67.97;99766.28;105038;1260;137646;-60
2024/02/05 09:46:05;;;;;;;13.20;3.50;;;;;;;6.70;67.18;99767.93;104933;1260;65766;-61
2024/02/05 09:48:33;;;;;;;10.50;2.30;;;;;;;6.61;67.29;99760.91;104885;1257;138363;-61
2024/02/05 09:51:03;;;;;;;9.20;2.50;;;;;;;6.58;66.82;99773.58;109181;1257;59764;-60
2024/02/05 09:53:30;;;;;;;12.60;3.80;;;;;;;6.58;66.92;99775.66;108963;1255;60048;-60
2024/02/05 09:55:57;;;;;;;13.10;2.60;;;;;;;6.57;66.89;99785.77;105587;1262;138850;-62
2024/02/05 09:58:25;;;;;;;13.20;2.70;;;;;;;6.54;66.54;99777.65;105076;1259;66926;-68
2024/02/05 10:00:52;;;;;;;10.80;2.50;;;;;;;6.45;66.59;99785.09;104819;1259;137900;-68
2024/02/05 10:03:19;;;;;;;11.70;2.90;;;;;;;6.36;66.66;99789.23;104860;1260;62162;-67
2024/02/05 10:05:46;;;;;;;10.80;2.40;;;;;;;6.32;66.78;99795.02;105001;1262;61977;-67
2024/02/05 10:08:12;;;;;;;12.50;3.10;;;;;;;6.30;66.85;99793.95;104729;1262;137816;-68
2024/02/05 10:10:40;;;;;;;11.80;2.30;;;;;;;6.35;66.77;99819.52;104898;1255;67329;-67
2024/02/05 10:13:07;;;;;;;16.10;2.70;;;;;;;6.39;66.78;99815.95;106224;1254;140616;-67
2024/02/05 10:15:34;;;;;;;9.40;2.40;;;;;;;6.44;66.74;99811.89;109180;1254;60216;-67
2024/02/05 10:18:01;;;;;;;16.40;3.20;;;;;;;6.47;66.65;99812.00;108922;1256;60428;-67
2024/02/05 10:20:34;;;;;;;13.10;3.00;;;;;;;6.56;66.81;99816.41;109086;1254;138133;-67
2024/02/05 10:23:02;;;;;;;11.10;2.20;;;;;;;6.63;66.71;99812.92;108971;1254;67002;-67
2024/02/05 10:25:28;;;;;;;10.20;2.60;;;;;;;6.61;66.16;99810.60;108929;1254;137853;-67
2024/02/05 10:28:02;;;;;;;12.30;3.10;;;;;;;6.59;66.41;99803.60;109242;1254;59810;-62
2024/02/05 10:30:30;;;;;;;9.50;2.50;;;;;;;6.62;66.37;99807.85;106875;1259;138595;-60
2024/02/05 10:33:00;;;;;;;15.70;2.90;;;;;;;6.62;65.89;99802.98;109065;1254;76479;-61
2024/02/05 10:35:27;;;;;;;11.40;2.80;;;;;;;6.62;66.15;99801.05;108550;1254;66245;-61
2024/02/05 10:38:05;;;;;;;10.90;2.50;;;;;;;6.66;66.24;99805.48;105017;1261;137982;-61
2024/02/05 10:40:36;;;;;;;8.20;2.40;;;;;;;6.72;66.27;99806.17;109127;1254;60171;-62
2024/02/05 10:43:08;;;;;;;13.40;2.90;;;;;;;6.78;66.21;99809.65;109114;1254;138040;-69
2024/02/05 10:45:38;;;;;;;7.80;2.10;;;;;;;6.81;65.61;99802.40;109180;1254;74823;-68
2024/02/05 10:48:06;;;;;;;10.40;2.10;;;;;;;6.82;65.19;99805.39;109168;1255;65088;-68
2024/02/05 10:50:32;;;;;;;13.10;2.90;;;;;;;6.86;65.34;99802.52;106319;1254;137978;-68
2024/02/05 10:52:59;;;;;;;11.30;2.10;;;;;;;6.96;65.51;99806.25;105155;1259;69010;-68
2024/02/05 10:55:26;;;;;;;9.90;2.40;;;;;;;7.05;65.04;99805.24;104933;1262;138420;-67
2024/02/05 10:57:53;;;;;;;11.20;2.70;;;;;;;7.12;65.04;99804.02;105055;1259;75581;-68
2024/02/05 11:00:21;;;;;;;7.80;2.20;;;;;;;7.18;64.90;99804.50;105024;1254;137937;-67
2024/02/05 11:02:58;;;;;;;12.80;3.20;;;;;;;7.18;64.09;99801.02;109069;1257;72110;-68
2024/02/05 11:05:25;;;;;;;16.50;3.30;;;;;;;7.16;64.29;99795.04;108702;1254;62261;-67
2024/02/05 11:08:09;;;;;;;17.40;2.90;;;;;;;7.21;64.45;99793.76;104776;1257;138363;-68
2024/02/05 11:10:40;;;;;;;8.60;2.60;;;;;;;7.31;64.68;99810.05;109206;1254;74234;-68
2024/02/05 11:13:06;;;;;;;6.50;2.20;;;;;;;7.37;63.90;99805.98;109126;1254;137850;-68
2024/02/05 11:15:38;;;;;;;7.80;1.80;;;;;;;7.40;63.94;99803.27;109165;1254;72575;-69
2024/02/05 11:18:14;;;;;;;12.40;2.10;;;;;;;7.44;63.73;99808.58;109187;1254;59848;-66
2024/02/05 11:20:45;;;;;;;10.50;2.10;;;;;;;7.49;63.75;99807.66;108974;1259;61679;-67
2024/02/05 11:23:13;;;;;;;10.40;2.60;;;;;;;7.53;63.60;99808.43;108906;1254;76714;-67
2024/02/05 11:25:40;;;;;;;9.40;2.50;;;;;;;7.53;63.23;99810.88;108841;1254;137960;-67
2024/02/05 11:28:10;;;;;;;10.30;2.70;;;;;;;7.56;63.41;99812.17;109189;1254;71926;-67
2024/02/05 11:30:44;;;;;;;8.50;2.50;;;;;;;7.60;63.07;99808.76;108873;1255;137800;-68